• Join FlightAware (Why Join?)
  • Login
  • US Flag 
Trick or treat! (Boo!!) 
05:36PM EDT


 

Airport Tracker/Info


-or-


 

Live Flight TrackerFlight Track Log ✈ UPS1121 ✈ 16-Jun-2014 ✈ KBDL - KPHL

Flight Track Log - Related Links

Times and Time Zones

All times are in EDT time to prevent confusion due to time zone crossing. See the UPS1121 flight status page for this flight to view local times or setup timezone preferences in your user account.

Time Position Orientation Groundspeed Altitude Reporting Facility
EDT Latitude Longitude Course Direction KTS MPH feet Rate Location/Type
10:04PM 41.8602 -72.6899 153° Southeast 248 285 4,900  Level FlightAware ADS-B (LDSP / SPU)
10:04PM 41.8427 -72.6780 154° Southeast 272 313 5,500 2,700 Climbing FlightAware ADS-B (KSNC)
10:05PM 41.8186 -72.6622 155° Southeast 286 329 6,600 3,480 Climbing FlightAware ADS-B (KSNC)
10:05PM 41.7919 -72.6468 158° South 295 339 8,000 3,480 Climbing FlightAware ADS-B (KSNC)
10:05PM 41.7635 -72.6311 157° South 307 353 9,100 3,000 Climbing FlightAware ADS-B (KSNC)
10:06PM 41.7230 -72.6066 155° Southeast 328 377 10,600 2,700 Climbing FlightAware ADS-B (KSNC)
10:06PM 41.6803 -72.5782 153° Southeast 356 410 11,800 2,700 Climbing FlightAware ADS-B (KSNC)
10:07PM 41.6414 -72.5465 140° Southeast 364 419 13,300 2,340 Climbing FlightAware ADS-B (KSNC)
10:07PM 41.6160 -72.5113 129° Southeast 361 415 13,700 720 Climbing FlightAware ADS-B (KSNC)
10:07PM 41.5914 -72.4797 147° Southeast 359 413 13,800 240 Climbing FlightAware ADS-B (KSNC)
10:08PM 41.5589 -72.4636 172° South 351 404 13,900 180 Climbing FlightAware ADS-B (KSNC)
10:08PM 41.5437 -72.4628 184° South 347 399 13,900  Level FlightAware ADS-B (KSNC)
10:08PM 41.5274 -72.4663 195° South 344 396 13,900  Level FlightAware ADS-B (KSNC)
10:08PM 41.4974 -72.4835 206° Southwest 342 394 13,900 1,560 Level FlightAware ADS-B (KSNC)
10:09PM 41.4329 -72.5279 208° Southwest 335 386 15,700 2,820 Climbing FlightAware ADS-B (KSNC)
10:10PM 41.3760 -72.5668 207° Southwest 337 388 18,000 3,180 Climbing FlightAware ADS-B (KSNC)
10:10PM 41.3355 -72.5942 207° Southwest 335 386 19,500 1,560 Climbing FlightAware ADS-B (KSNC)
10:11PM 41.2725 -72.6369 207° Southwest 335 386 20,000 360 Climbing FlightAware ADS-B (KSNC)
10:12PM 41.2322 -72.6641 207° Southwest 331 381 20,000  Level FlightAware ADS-B (KSNC)
10:12PM 41.1715 -72.7051 207° Southwest 330 380 20,000  Level FlightAware ADS-B (KSNC)
10:13PM 41.1182 -72.7411 207° Southwest 331 381 20,000  Level FlightAware ADS-B (KSNC)
10:14PM 41.0759 -72.7697 207° Southwest 331 381 20,000  Level FlightAware ADS-B (KSNC)
10:14PM 41.0342 -72.8010 218° Southwest 325 374 20,000  Level FlightAware ADS-B (KSNC)
10:15PM 40.9816 -72.8605 221° Southwest 323 372 20,000  Level FlightAware ADS-B (KSNC)
10:15PM 40.9487 -72.8983 221° Southwest 323 372 20,000  Level FlightAware ADS-B (KSNC)
10:16PM 40.9005 -72.9450 208° Southwest 331 381 20,000  Level FlightAware ADS-B (KSNC)
10:17PM 40.8579 -72.9718 205° Southwest 333 383 20,000  Level FlightAware ADS-B (KSNC)
10:17PM 40.7998 -73.0068 205° Southwest 332 382 20,000  Level FlightAware ADS-B (KSNC)
10:18PM 40.7570 -73.0329 205° Southwest 330 380 20,000  Level FlightAware ADS-B (KSNC)
10:18PM 40.6998 -73.0678 205° Southwest 331 381 20,000  Level FlightAware ADS-B (KSNC)
10:19PM 40.6447 -73.1005 204° Southwest 330 380 20,000  Level FlightAware ADS-B (KSNC)
10:20PM 40.5931 -73.1309 204° Southwest 330 380 20,000  Level FlightAware ADS-B (KSNC)
10:20PM 40.5388 -73.1628 204° Southwest 332 382 20,000  Level FlightAware ADS-B (KSNC)
10:21PM 40.4803 -73.1973 204° Southwest 332 382 20,000  Level FlightAware ADS-B (KSNC)
10:22PM 40.4374 -73.2226 204° Southwest 332 382 20,000  Level FlightAware ADS-B (KSNC)
10:22PM 40.3743 -73.2600 204° Southwest 333 383 20,000  Level FlightAware ADS-B (KSNC)
10:23PM 40.3301 -73.2862 204° Southwest 334 384 20,000  Level FlightAware ADS-B (KSNC)
10:24PM 40.2647 -73.3250 204° Southwest 334 384 20,000  Level FlightAware ADS-B (KSNC)
10:24PM 40.2221 -73.3501 204° Southwest 334 384 20,000  Level FlightAware ADS-B (KSNC)
10:25PM 40.1615 -73.3859 204° Southwest 334 384 20,000  Level FlightAware ADS-B (KSNC)
10:25PM 40.1080 -73.4174 204° Southwest 335 386 20,000  Level FlightAware ADS-B (KSNC)
10:26PM 40.0877 -73.4294 209° Southwest 334 384 20,000  Level FlightAware ADS-B (KPHL)
10:26PM 40.1404 -73.3983 208° Southwest 334 384 20,000  Level FlightAware ADS-B (KPHL)
10:27PM 39.9985 -73.5151 225° Southwest 327 376 20,000  Level FlightAware ADS-B (KPHL)
10:27PM 39.9661 -73.5577 225° Southwest 327 376 20,000  Level FlightAware ADS-B (KPHL)
10:28PM 39.9145 -73.6251 225° Southwest 327 376 20,000  Level FlightAware ADS-B (KPHL)
10:29PM 39.8859 -73.6625 225° Southwest 327 376 20,000  Level FlightAware ADS-B (KPHL)
10:29PM 39.8345 -73.7297 226° Southwest 328 377 20,000  Level FlightAware ADS-B (KPHL)
10:30PM 39.7852 -73.7947 226° Southwest 329 379 20,000 -120 Level FlightAware ADS-B (KPHL)
10:31PM 39.7412 -73.8530 225° Southwest 327 376 19,900 -1,080 Descending FlightAware ADS-B (KPHL)
10:31PM 39.7098 -73.8943 226° Southwest 332 382 18,800 -2,040 Descending FlightAware ADS-B (KPHL)
10:32PM 39.6777 -73.9364 225° Southwest 338 389 17,900 -1,800 Descending FlightAware ADS-B (KPHL)
10:33PM 39.6105 -74.0236 225° Southwest 336 387 16,100 -1,800 Descending FlightAware ADS-B (KPHL)
10:34PM 39.6176 -74.0145 225° Southwest 327 376 14,900 -1,380 Descending FlightAware ADS-B (KPHL)
10:35PM 39.5253 -74.1702 270° West 296 341 13,800 -1,380 Descending FlightAware ADS-B (KPHL)
10:35PM 39.5267 -74.2673 272° West 292 336 12,400 -1,620 Descending FlightAware ADS-B (KPHL)
10:36PM 39.5276 -74.3317 271° West 290 334 11,500 -1,620 Descending FlightAware ADS-B (KPHL)
10:37PM 39.5281 -74.4187 271° West 287 330 10,100 -960 Descending FlightAware ADS-B (KPHL)
10:39PM 39.5307 -74.6254 272° West 276 318 8,900 -480 Descending FlightAware ADS-B (KPHL)
10:39PM 39.5315 -74.6716 272° West 276 318 8,900  Level FlightAware ADS-B (KPHL)
10:40PM 39.5319 -74.6969 272° West 276 318 8,900  Level FlightAware ADS-B (KPHL)
10:40PM 39.5327 -74.7469 272° West 277 319 8,900  Level FlightAware ADS-B (KPHL)
10:41PM 39.5337 -74.8194 272° West 280 322 8,900  Level FlightAware ADS-B (KPHL)
10:41PM 39.5344 -74.8723 271° West 277 319 8,900  Level FlightAware ADS-B (KPHL)
10:42PM 39.5345 -74.8995 271° West 278 320 8,900 -180 Level FlightAware ADS-B (KPHL)
10:42PM 39.5364 -74.9485 281° West 277 319 8,800  Descending FlightAware ADS-B (KPHL)
10:42PM 39.5416 -74.9649 307° West 274 315 8,900  Climbing FlightAware ADS-B (KPHL)
10:43PM 39.5771 -75.0010 327° Northwest 273 314 8,800  Descending FlightAware ADS-B (KPHL)
10:43PM 39.6076 -75.0252 327° Northwest 274 315 8,900  Climbing FlightAware ADS-B (KPHL)
10:44PM 39.6406 -75.0532 326° Northwest 272 313 8,800 -420 Descending FlightAware ADS-B (KPHL)
10:44PM 39.6576 -75.0655 337° Northwest 267 307 8,600 -1,440 Descending FlightAware ADS-B (KPHL)
10:44PM 39.6755 -75.0713 351° North 259 298 8,100 -1,620 Descending FlightAware ADS-B (KPHL)
10:45PM 39.6923 -75.0735 354° North 247 284 7,800 -1,200 Descending FlightAware ADS-B (KPHL)
10:45PM 39.7097 -75.0740 North 233 268 7,500 -1,200 Descending FlightAware ADS-B (KPHL)
10:45PM 39.7245 -75.0687 20° North 222 255 7,200 -1,500 Descending FlightAware ADS-B (KPHL)
10:46PM 39.7617 -75.0500 21° North 200 230 6,100 -1,500 Descending FlightAware ADS-B (KPHL)
10:46PM 39.7747 -75.0433 22° Northeast 194 223 5,800 -1,380 Descending FlightAware ADS-B (KPHL)
10:46PM 39.7856 -75.0373 23° Northeast 191 220 5,400 -1,560 Descending FlightAware ADS-B (KPHL)
10:47PM 39.8234 -75.0179 North 189 217 4,300 -1,560 Descending FlightAware ADS-B (KPHL)
10:47PM 39.8367 -75.0187 355° North 188 216 3,900 -1,440 Descending FlightAware ADS-B (KPHL)
10:48PM 39.8501 -75.0203 354° North 187 215 3,600 -1,020 Descending FlightAware ADS-B (KPHL)
10:48PM 39.8632 -75.0222 353° North 182 209 3,400 -840 Descending FlightAware ADS-B (KPHL)
10:48PM 39.8829 -75.0297 333° Northwest 167 192 3,000 -900 Descending FlightAware ADS-B (KPHL)
10:49PM 39.8922 -75.0372 315° West 161 185 2,800 -240 Descending FlightAware ADS-B (KPHL)
10:49PM 39.8980 -75.0479 294° West 157 181 2,900 -420 Climbing FlightAware ADS-B (KPHL)
10:49PM 39.9002 -75.0640 271° West 159 183 2,600 -1,020 Descending FlightAware ADS-B (KPHL)
10:49PM 39.8993 -75.0788 264° West 159 183 2,400 -780 Descending FlightAware ADS-B (KPHL)
10:50PM 39.8968 -75.0929 255° West 158 182 2,200 -1,020 Descending FlightAware ADS-B (KPHL)
10:50PM 39.8940 -75.1068 256° West 157 181 1,900 -780 Descending FlightAware ADS-B (KPHL)
10:50PM 39.8910 -75.1222 256° West 147 169 1,800 -660 Descending FlightAware ADS-B (KPHL)
10:51PM 39.8865 -75.1464 256° West 123 142 1,400 -840 Descending FlightAware ADS-B (KPHL)
10:51PM 39.8830 -75.1644 256° West 108 124 1,000 -720 Descending FlightAware ADS-B (KPHL)
10:51PM 39.8810 -75.1741 257° West 109 125 900 -540 Descending FlightAware ADS-B (KPHL)
10:52PM 39.8769 -75.1942 255° West 116 133 600 -600 Descending FlightAware ADS-B (KPHL)
10:52PM 39.8739 -75.2093 256° West 119 137 400 -600 Descending FlightAware ADS-B (KPHL)
10:53PM 39.8696 -75.2310 256° West 118 136 100 -660 Descending FlightAware ADS-B (KPHL)